Time;durP1;ratioP1;P1;durP2;ratioP2;P2;SDS_P1;SDS_P2;PMS_P1;PMS_P2;Temp;Humidity;BMP_temperature;BMP_pressure;BME280_temperature;BME280_humidity;BME280_pressure;Samples;Min_cycle;Max_cycle;Signal;HPM_P1;HPM_P2
2021/12/17 00:05:05;;;;;;;27.98;23.20;;;;;;;5.87;97.57;103939.84;5052467;28;20036;-70
2021/12/17 00:07:35;;;;;;;33.17;24.73;;;;;;;5.91;97.71;103947.72;5043359;28;20034;-70
2021/12/17 00:10:03;;;;;;;29.75;23.92;;;;;;;5.93;97.46;103947.72;5049929;28;20053;-70
2021/12/17 00:12:29;;;;;;;30.30;24.27;;;;;;;5.94;97.74;103946.81;5050911;28;20506;-71
2021/12/17 00:14:56;;;;;;;29.13;23.55;;;;;;;5.95;97.49;103940.66;5044754;28;20035;-71
2021/12/17 00:17:27;;;;;;;28.77;23.02;;;;;;;5.97;97.56;103938.03;5052434;28;20433;-71
2021/12/17 00:50:03;;;;;;;31.40;24.45;;;;;;;6.13;97.51;103925.59;5032296;28;20034;-71
2021/12/17 00:52:33;;;;;;;31.02;25.83;;;;;;;6.13;97.48;103926.47;5030927;28;20037;-70
2021/12/17 00:54:58;;;;;;;37.17;27.48;;;;;;;6.16;98.08;103921.19;5029937;28;20225;-71
2021/12/17 00:57:27;;;;;;;36.50;28.58;;;;;;;6.17;98.05;103922.91;5030427;28;20467;-71
2021/12/17 00:59:55;;;;;;;36.40;28.58;;;;;;;6.21;98.04;103921.13;5030235;28;20084;-71
2021/12/17 01:02:27;;;;;;;37.70;30.05;;;;;;;6.22;98.40;103925.53;5029907;28;20300;-70
2021/12/17 01:04:57;;;;;;;34.33;26.67;;;;;;;6.22;97.91;103918.47;5040516;28;20032;-71
2021/12/17 01:07:26;;;;;;;37.25;29.27;;;;;;;6.23;98.27;103914.09;5049513;28;20091;-71
2021/12/17 01:09:52;;;;;;;32.90;26.48;;;;;;;6.25;98.21;103917.59;5050452;28;20083;-71
2021/12/17 01:12:21;;;;;;;32.33;26.27;;;;;;;6.25;97.93;103914.94;5049855;28;20475;-71
2021/12/17 01:14:48;;;;;;;35.60;29.48;;;;;;;6.28;98.29;103914.91;5051154;28;20045;-71
2021/12/17 01:17:15;;;;;;;32.50;26.75;;;;;;;6.26;98.48;103909.66;5039383;28;20038;-71
2021/12/17 01:24:59;;;;;;;34.40;27.25;;;;;;;6.29;98.23;103904.34;5048534;28;20047;-71
2021/12/17 01:35:40;;;;;;;28.75;24.13;;;;;;;6.37;98.00;103908.69;5030995;28;20384;-71
2021/12/17 01:43:49;;;;;;;28.20;23.80;;;;;;;6.39;98.17;103905.09;5031187;28;20048;-71
2021/12/17 01:46:21;;;;;;;27.40;24.27;;;;;;;6.39;98.01;103910.38;5031317;28;20079;-70
2021/12/17 01:49:00;;;;;;;33.72;24.35;;;;;;;6.36;97.97;103899.00;5030896;28;20124;-71
2021/12/17 01:59:18;;;;;;;29.60;23.92;;;;;;;6.43;97.66;103906.84;5030898;28;20033;-70
2021/12/17 01:59:40;;;;;;;32.90;25.20;;;;;;;6.44;97.83;103905.06;5030437;28;20141;-70
2021/12/17 02:02:08;;;;;;;30.80;25.92;;;;;;;6.43;97.76;103905.97;5030630;28;20141;-70
2021/12/17 02:04:36;;;;;;;35.83;27.75;;;;;;;6.46;98.24;103908.56;5030467;28;20116;-70
2021/12/17 02:07:05;;;;;;;36.75;28.70;;;;;;;6.47;98.30;103912.97;5030755;28;20032;-70
2021/12/17 02:28:46;;;;;;;32.45;26.27;;;;;;;6.53;98.27;103907.63;5050204;28;20103;-70
2021/12/17 02:31:27;;;;;;;31.92;26.70;;;;;;;6.53;98.46;103902.34;5050314;28;20025;-70
2021/12/17 02:33:55;;;;;;;36.75;27.27;;;;;;;6.54;98.59;103901.44;5050073;28;20053;-70
2021/12/17 02:36:25;;;;;;;32.40;26.45;;;;;;;6.57;98.28;103916.41;5035622;28;20032;-69
2021/12/17 02:38:52;;;;;;;33.58;26.92;;;;;;;6.57;98.44;103916.41;5050207;28;20394;-69
2021/12/17 02:46:46;;;;;;;37.38;29.35;;;;;;;6.60;98.56;103919.88;5048699;28;20120;-70
2021/12/17 02:49:11;;;;;;;38.25;29.35;;;;;;;6.60;98.65;103914.59;5044650;28;20340;-70
2021/12/17 02:51:37;;;;;;;39.45;29.60;;;;;;;6.61;98.64;103911.06;5044779;28;20032;-70
2021/12/17 02:54:02;;;;;;;41.03;29.35;;;;;;;6.59;98.57;103904.03;5049992;28;20494;-70
2021/12/17 02:56:28;;;;;;;38.97;28.92;;;;;;;6.61;99.17;103899.63;5044344;28;20466;-70
2021/12/17 02:58:54;;;;;;;37.13;28.75;;;;;;;6.61;98.88;103903.16;5048684;28;20502;-70
2021/12/17 03:01:20;;;;;;;42.83;30.08;;;;;;;6.63;98.95;103903.13;5048766;28;20383;-70
2021/12/17 03:03:50;;;;;;;48.58;32.00;;;;;;;6.64;99.34;103911.03;5046875;28;20033;-70
2021/12/17 03:06:16;;;;;;;40.28;30.25;;;;;;;6.63;99.12;103914.56;5049693;28;20382;-70
2021/12/17 03:08:41;;;;;;;47.45;30.20;;;;;;;6.66;99.46;103905.72;5049698;28;20112;-70
2021/12/17 03:11:07;;;;;;;42.55;31.23;;;;;;;6.66;99.07;103909.25;5048132;28;20475;-69
2021/12/17 03:13:35;;;;;;;43.45;30.38;;;;;;;6.65;99.26;103907.50;5044438;28;20094;-69
2021/12/17 03:16:11;;;;;;;41.53;29.55;;;;;;;6.66;99.18;103911.91;5042427;28;20087;-69
2021/12/17 03:23:55;;;;;;;49.70;32.78;;;;;;;6.72;99.27;103913.59;5046170;28;20067;-70
2021/12/17 03:26:23;;;;;;;61.70;34.75;;;;;;;6.73;99.43;103917.09;5049509;28;20050;-70
2021/12/17 03:28:52;;;;;;;58.17;37.22;;;;;;;6.76;99.76;103925.88;5045826;28;20495;-70
2021/12/17 03:31:19;;;;;;;66.28;39.35;;;;;;;6.79;99.99;103927.59;5047871;28;20033;-70
2021/12/17 03:33:48;;;;;;;69.78;38.28;;;;;;;6.78;100.00;103917.94;5053298;28;20049;-70
2021/12/17 03:36:15;;;;;;;;;;;;;;;6.88;99.65;103926.59;5054093;28;20064;-70
2021/12/17 03:38:47;;;;;;;78.47;41.10;;;;;;;6.85;100.00;103920.47;5039159;28;19913;-70
2021/12/17 03:43:47;;;;;;;90.50;42.20;;;;;;;6.87;100.00;103917.81;5033205;28;22032;-70
2021/12/17 03:46:13;;;;;;;86.60;42.92;;;;;;;6.87;100.00;103915.19;5033078;28;20033;-70
2021/12/17 03:48:40;;;;;;;98.32;42.97;;;;;;;6.89;100.00;103925.72;5033339;28;20112;-70
2021/12/17 03:51:11;;;;;;;98.30;43.25;;;;;;;6.91;100.00;103924.84;5033430;28;20041;-70
2021/12/17 03:53:37;;;;;;;99.60;44.05;;;;;;;6.92;100.00;103915.13;5033198;28;20022;-70
2021/12/17 03:56:02;;;;;;;103.75;43.08;;;;;;;6.94;100.00;103913.34;5033140;28;20119;-70
2021/12/17 03:58:27;;;;;;;97.75;42.55;;;;;;;6.92;100.00;103913.34;5033063;28;20175;-70
2021/12/17 04:00:53;;;;;;;106.80;44.15;;;;;;;6.92;100.00;103918.63;5032873;28;20035;-70
2021/12/17 04:03:18;;;;;;;101.97;43.05;;;;;;;6.95;100.00;103917.75;5032934;28;20037;-70
2021/12/17 04:05:43;;;;;;;108.32;42.97;;;;;;;6.94;100.00;103914.19;5032812;28;20029;-70
2021/12/17 04:08:09;;;;;;;109.13;43.38;;;;;;;6.95;100.00;103915.97;5032802;28;20459;-70
2021/12/17 04:10:42;;;;;;;112.53;45.35;;;;;;;6.96;100.00;103908.91;5032757;28;20028;-70
2021/12/17 04:15:55;;;;;;;117.20;42.58;;;;;;;6.98;100.00;103907.13;5051589;28;20049;-70
2021/12/17 04:18:20;;;;;;;115.85;43.17;;;;;;;6.99;100.00;103911.50;5052399;28;20079;-70
2021/12/17 04:20:46;;;;;;;121.10;43.72;;;;;;;6.98;100.00;103901.84;5052206;28;20052;-70
2021/12/17 04:23:11;;;;;;;129.52;44.83;;;;;;;6.99;100.00;103904.44;5049435;28;20048;-70
2021/12/17 04:25:36;;;;;;;126.85;45.15;;;;;;;7.01;100.00;103909.72;5052106;28;20087;-70
2021/12/17 04:28:02;;;;;;;135.35;45.22;;;;;;;7.02;100.00;103911.47;5052119;28;20368;-70
2021/12/17 04:30:28;;;;;;;131.65;45.40;;;;;;;7.01;100.00;103909.72;5052125;28;20028;-70
2021/12/17 04:32:54;;;;;;;124.93;43.45;;;;;;;7.02;100.00;103915.00;5039065;28;20052;-70
2021/12/17 04:35:19;;;;;;;127.43;43.63;;;;;;;7.02;100.00;103908.84;5051802;28;20402;-70
2021/12/17 04:37:45;;;;;;;123.15;43.28;;;;;;;7.01;100.00;103902.69;5049115;28;20681;-70
2021/12/17 04:40:11;;;;;;;128.60;44.53;;;;;;;7.03;100.00;103908.81;5051964;28;20028;-70
2021/12/17 04:45:21;;;;;;;125.10;43.70;;;;;;;7.04;100.00;103914.97;5048203;28;20041;-70
2021/12/17 04:58:42;;;;;;;128.02;44.45;;;;;;;7.06;100.00;103904.38;5037923;28;20071;-71
2021/12/17 05:01:12;;;;;;;149.38;47.47;;;;;;;7.05;100.00;103903.53;5050856;28;20048;-70
2021/12/17 05:03:38;;;;;;;133.95;46.08;;;;;;;7.07;100.00;103906.16;5051146;28;20060;-70
2021/12/17 05:06:03;;;;;;;139.00;47.80;;;;;;;7.08;100.00;103906.13;5046454;28;20376;-71
2021/12/17 05:08:29;;;;;;;152.15;50.13;;;;;;;7.07;100.00;103908.78;5046630;28;20039;-71
2021/12/17 05:11:19;;;;;;;140.30;46.58;;;;;;;7.08;100.00;103908.78;5044908;28;20076;-71
2021/12/17 05:19:40;;;;;;;136.10;47.17;;;;;;;7.09;100.00;103913.13;5048616;28;20064;-71
2021/12/17 05:22:09;;;;;;;132.98;44.70;;;;;;;7.08;100.00;103908.78;5051337;28;20039;-71
2021/12/17 05:24:35;;;;;;;135.43;46.13;;;;;;;7.09;100.00;103909.63;5051228;28;20021;-71
2021/12/17 05:27:00;;;;;;;153.25;49.35;;;;;;;7.09;100.00;103909.63;5038862;28;20045;-72
2021/12/17 05:29:26;;;;;;;159.02;50.05;;;;;;;7.09;100.00;103913.13;5048500;28;20017;-72
2021/12/17 05:31:51;;;;;;;136.60;46.20;;;;;;;7.09;100.00;103918.44;5050797;28;20107;-72
2021/12/17 05:34:16;;;;;;;129.95;44.05;;;;;;;7.10;100.00;103917.53;5038468;28;20084;-72
2021/12/17 05:36:41;;;;;;;114.88;41.92;;;;;;;7.09;100.00;103912.28;5050922;28;20065;-72
2021/12/17 05:39:07;;;;;;;128.20;42.40;;;;;;;7.09;100.00;103918.44;5048313;28;20079;-72
2021/12/17 05:41:32;;;;;;;123.22;41.08;;;;;;;7.09;100.00;103926.34;5049798;28;20044;-72
2021/12/17 05:43:57;;;;;;;114.78;38.47;;;;;;;7.11;100.00;103929.88;5047769;28;20102;-72
2021/12/17 05:46:38;;;;;;;114.70;39.17;;;;;;;7.11;100.00;103924.59;5045511;28;20036;-72
2021/12/17 05:49:05;;;;;;;112.88;38.00;;;;;;;7.12;100.00;103926.31;5051007;28;20028;-71
2021/12/17 05:51:31;;;;;;;99.53;35.38;;;;;;;7.12;100.00;103922.81;5049699;28;20103;-71
2021/12/17 05:53:56;;;;;;;101.45;36.30;;;;;;;7.12;100.00;103915.75;5036525;28;20351;-71
2021/12/17 05:56:22;;;;;;;100.70;37.85;;;;;;;7.12;100.00;103915.75;5050466;28;20033;-72
2021/12/17 05:58:47;;;;;;;98.93;35.67;;;;;;;7.12;100.00;103917.53;5036486;28;20025;-72
2021/12/17 06:01:12;;;;;;;94.43;36.45;;;;;;;7.10;100.00;103914.91;5050332;28;20471;-72
2021/12/17 06:03:38;;;;;;;93.53;35.88;;;;;;;7.10;100.00;103919.31;5050266;28;20021;-72
2021/12/17 06:06:03;;;;;;;100.32;35.63;;;;;;;7.11;100.00;103915.78;5050165;28;20075;-72
2021/12/17 06:08:30;;;;;;;93.72;34.28;;;;;;;7.13;100.00;103932.50;5045637;28;20402;-72
2021/12/17 06:10:55;;;;;;;100.47;36.38;;;;;;;7.13;100.00;103933.38;5050219;28;20029;-72
2021/12/17 06:13:20;;;;;;;106.45;35.40;;;;;;;7.13;100.00;103928.09;5050172;28;20438;-72
2021/12/17 06:15:46;;;;;;;102.97;35.88;;;;;;;7.12;100.00;103923.69;5049502;28;20032;-72
2021/12/17 06:18:11;;;;;;;100.15;35.95;;;;;;;7.15;100.00;103939.50;5041278;28;20056;-72
2021/12/17 06:20:36;;;;;;;91.97;35.05;;;;;;;7.14;100.00;103935.09;5044440;28;20030;-72
2021/12/17 06:23:02;;;;;;;98.53;35.80;;;;;;;7.14;100.00;103936.88;5050145;28;20029;-71
2021/12/17 06:25:27;;;;;;;98.68;34.47;;;;;;;7.14;100.00;103928.94;5050089;28;20063;-72
2021/12/17 06:27:52;;;;;;;100.97;33.72;;;;;;;7.14;100.00;103935.09;5047557;28;20546;-72
2021/12/17 06:30:20;;;;;;;88.95;33.72;;;;;;;7.14;100.00;103945.69;5032353;28;20026;-72
2021/12/17 06:32:45;;;;;;;92.45;33.67;;;;;;;7.13;100.00;103946.59;5047103;28;20045;-72
2021/12/17 06:35:11;;;;;;;95.55;34.38;;;;;;;7.12;100.00;103950.13;5050463;28;20041;-71
2021/12/17 06:37:40;;;;;;;98.40;32.72;;;;;;;7.14;100.00;103944.81;5049958;28;20120;-72
2021/12/17 06:40:06;;;;;;;90.63;34.20;;;;;;;7.14;100.00;103943.03;5041793;28;20029;-72
2021/12/17 06:42:32;;;;;;;87.57;31.27;;;;;;;7.13;100.00;103943.09;5049887;28;20064;-72
2021/12/17 06:45:02;;;;;;;92.82;33.08;;;;;;;7.13;100.00;103954.53;5049696;28;20111;-72
2021/12/17 06:47:33;;;;;;;78.55;31.08;;;;;;;7.13;100.00;103959.81;5043735;28;20056;-72
2021/12/17 07:06:01;;;;;;;72.18;28.02;;;;;;;7.14;100.00;103936.88;5051471;28;20051;-72
2021/12/17 07:11:37;;;;;;;66.13;27.75;;;;;;;7.14;100.00;103950.97;5049901;28;20510;-73
2021/12/17 07:28:14;;;;;;;60.85;25.52;;;;;;;7.13;100.00;103959.81;5045021;28;20068;-73
2021/12/17 07:32:08;;;;;;;64.18;28.58;;;;;;;7.15;100.00;103952.72;5043967;28;20071;-73
2021/12/17 07:33:41;;;;;;;63.40;26.95;;;;;;;7.13;100.00;103951.88;5039916;28;20049;-72
2021/12/17 07:36:10;;;;;;;63.15;27.17;;;;;;;7.15;100.00;103949.22;5052852;28;20040;-72
2021/12/17 07:38:39;;;;;;;67.13;27.52;;;;;;;7.13;100.00;103941.31;5049221;28;20025;-72
2021/12/17 07:41:07;;;;;;;64.72;26.77;;;;;;;7.11;100.00;103934.28;5053282;28;20475;-72
2021/12/17 07:43:40;;;;;;;73.10;27.92;;;;;;;7.13;100.00;103945.72;5042309;28;20036;-72
2021/12/17 07:46:09;;;;;;;70.00;27.35;;;;;;;7.09;100.00;103938.72;5051835;28;20060;-73
2021/12/17 07:48:36;;;;;;;66.00;28.00;;;;;;;7.09;100.00;103942.22;5052505;28;20475;-72
2021/12/17 07:51:05;;;;;;;63.90;27.38;;;;;;;7.08;100.00;103934.31;5053142;28;20452;-72
2021/12/17 07:53:31;;;;;;;64.57;27.77;;;;;;;7.09;100.00;103933.41;5048130;28;20041;-72
2021/12/17 07:55:58;;;;;;;56.90;25.67;;;;;;;7.09;100.00;103938.72;5052157;28;20231;-72
2021/12/17 07:58:23;;;;;;;55.30;26.15;;;;;;;7.09;100.00;103939.56;5051814;28;20033;-72
2021/12/17 08:00:49;;;;;;;54.30;25.17;;;;;;;7.11;100.00;103939.56;5040622;28;20036;-72
2021/12/17 08:03:14;;;;;;;53.92;26.73;;;;;;;7.11;100.00;103937.81;5051494;28;20534;-72
2021/12/17 08:05:42;;;;;;;49.78;24.75;;;;;;;7.12;100.00;103933.38;5067380;28;20029;-72
2021/12/17 08:08:08;;;;;;;51.47;26.05;;;;;;;7.10;100.00;103933.41;5051758;28;20122;-72
2021/12/17 08:10:33;;;;;;;54.83;27.05;;;;;;;7.12;100.00;103938.69;5031009;28;20072;-73
2021/12/17 08:12:59;;;;;;;51.90;25.45;;;;;;;7.13;100.00;103951.00;5040344;28;20041;-73
2021/12/17 08:15:32;;;;;;;46.42;25.88;;;;;;;7.13;100.00;103943.94;5042434;28;20112;-72
2021/12/17 08:18:26;;;;;;;45.72;24.73;;;;;;;7.12;100.00;103941.31;5045788;28;20029;-72
2021/12/17 08:26:29;;;;;;;46.22;24.92;;;;;;;7.14;100.00;103965.97;5034125;28;20107;-73
2021/12/17 08:29:12;;;;;;;49.92;27.13;;;;;;;7.15;100.00;103970.38;5033304;28;20025;-73
2021/12/17 08:31:37;;;;;;;45.83;27.23;;;;;;;7.16;100.00;103966.81;5035177;28;20034;-72
2021/12/17 08:34:05;;;;;;;50.05;27.23;;;;;;;7.14;100.00;103974.75;5033540;28;20511;-72
2021/12/17 08:36:30;;;;;;;48.92;27.20;;;;;;;7.15;100.00;103978.28;5037843;28;20063;-72
2021/12/17 08:38:56;;;;;;;46.42;25.42;;;;;;;7.14;100.00;103974.75;5041851;28;20451;-72
2021/12/17 08:41:22;;;;;;;46.10;26.83;;;;;;;7.14;100.00;103973.88;5034855;28;20108;-72
2021/12/17 08:43:47;;;;;;;51.03;26.13;;;;;;;7.15;100.00;103979.16;5034319;28;20035;-72
2021/12/17 08:46:12;;;;;;;49.50;27.65;;;;;;;7.15;100.00;103979.16;5020809;28;20036;-71
2021/12/17 08:48:38;;;;;;;46.03;27.33;;;;;;;7.15;100.00;103978.28;5028393;28;20356;-72
2021/12/17 08:51:06;;;;;;;46.63;27.88;;;;;;;7.16;100.00;103980.03;5044186;28;20037;-72
2021/12/17 08:53:33;;;;;;;46.97;26.80;;;;;;;7.15;100.00;103973.88;5034947;28;20395;-70
2021/12/17 08:55:58;;;;;;;52.83;27.65;;;;;;;7.15;100.00;103965.06;5038851;28;20410;-71
2021/12/17 08:58:24;;;;;;;50.22;26.85;;;;;;;7.16;100.00;103964.16;5034390;28;20112;-70
2021/12/17 09:00:49;;;;;;;49.58;27.30;;;;;;;7.15;100.00;103962.44;5050247;28;20116;-71
2021/12/17 09:03:14;;;;;;;46.45;25.52;;;;;;;7.15;100.00;103952.72;5048642;28;20429;-72
2021/12/17 09:05:42;;;;;;;45.97;25.75;;;;;;;7.17;100.00;103971.22;5035733;28;20715;-73
2021/12/17 09:08:09;;;;;;;46.90;26.35;;;;;;;7.15;100.00;103965.94;5037854;28;20033;-72
2021/12/17 09:10:35;;;;;;;43.95;25.02;;;;;;;7.18;100.00;103962.41;5032713;28;20049;-71
2021/12/17 09:13:01;;;;;;;44.63;25.25;;;;;;;7.19;100.00;103975.59;5030579;28;20025;-73
2021/12/17 09:15:27;;;;;;;44.67;25.67;;;;;;;7.22;100.00;103979.97;5033926;28;20122;-72
2021/12/17 09:17:52;;;;;;;45.88;26.25;;;;;;;7.22;100.00;103969.38;5040041;28;20132;-73
2021/12/17 09:20:18;;;;;;;42.97;25.95;;;;;;;7.22;100.00;103982.59;5041678;28;20113;-73
2021/12/17 09:22:43;;;;;;;45.78;26.08;;;;;;;7.24;100.00;103983.44;5038743;28;20064;-71
2021/12/17 09:25:09;;;;;;;48.17;25.88;;;;;;;7.25;100.00;103992.28;5042873;28;20361;-73
2021/12/17 09:27:36;;;;;;;46.08;26.02;;;;;;;7.24;100.00;103999.31;5043860;28;20806;-73
2021/12/17 09:30:02;;;;;;;48.00;25.98;;;;;;;7.25;100.00;104002.84;5045660;28;20041;-73
2021/12/17 09:32:27;;;;;;;44.78;24.75;;;;;;;7.25;100.00;104000.22;5051822;28;20045;-72
2021/12/17 09:34:53;;;;;;;46.15;25.45;;;;;;;7.26;100.00;104008.13;5036868;28;20102;-72
2021/12/17 09:37:18;;;;;;;48.35;24.58;;;;;;;7.28;100.00;104011.63;5042101;28;20037;-73
2021/12/17 09:39:44;;;;;;;45.50;24.88;;;;;;;7.29;100.00;104015.13;5051573;28;20135;-73
2021/12/17 09:42:10;;;;;;;45.63;25.83;;;;;;;7.30;100.00;104019.53;5051257;28;20029;-72
2021/12/17 09:44:35;;;;;;;47.22;25.23;;;;;;;7.30;100.00;104017.75;5049747;28;20041;-73
2021/12/17 09:47:01;;;;;;;46.60;24.63;;;;;;;7.30;100.00;104011.59;5042935;28;20049;-73
2021/12/17 09:49:27;;;;;;;47.40;25.33;;;;;;;7.32;100.00;104017.75;5024303;28;20082;-73
2021/12/17 09:51:52;;;;;;;54.60;26.00;;;;;;;7.32;100.00;104020.38;5035572;28;20029;-73
2021/12/17 09:54:19;;;;;;;48.70;26.20;;;;;;;7.32;100.00;104017.75;5034689;28;20467;-73
2021/12/17 09:56:44;;;;;;;50.88;26.38;;;;;;;7.31;100.00;104027.47;5025808;28;20025;-73
2021/12/17 09:59:13;;;;;;;53.83;26.15;;;;;;;7.31;100.00;104031.84;5036332;28;20098;-72
2021/12/17 10:01:39;;;;;;;53.28;26.95;;;;;;;7.33;100.00;104025.66;5051025;28;20037;-74
2021/12/17 10:04:28;;;;;;;51.72;25.67;;;;;;;7.36;100.00;104025.63;5031597;28;20403;-74
2021/12/17 10:07:18;;;;;;;49.92;27.10;;;;;;;7.38;100.00;104029.13;5033653;28;20063;-74
2021/12/17 10:09:54;;;;;;;51.25;25.75;;;;;;;7.40;100.00;104031.75;5033782;28;20040;-74
2021/12/17 10:12:37;;;;;;;49.60;26.20;;;;;;;7.40;100.00;104023.81;5041891;28;20524;-74
2021/12/17 10:15:15;;;;;;;54.22;26.77;;;;;;;7.43;100.00;104037.00;5040060;28;20037;-70
2021/12/17 10:17:50;;;;;;;45.08;24.15;;;;;;;7.44;100.00;104038.75;5049316;28;20040;-74
2021/12/17 10:20:15;;;;;;;51.33;26.48;;;;;;;7.44;100.00;104035.22;5047495;28;20045;-74
2021/12/17 10:22:44;;;;;;;53.08;27.08;;;;;;;7.41;100.00;104028.19;5051358;28;20388;-74
2021/12/17 10:25:11;;;;;;;45.83;25.25;;;;;;;7.46;100.00;104034.34;5036995;28;20053;-73
2021/12/17 10:27:39;;;;;;;45.90;25.75;;;;;;;7.46;100.00;104029.03;5035245;28;20033;-74
2021/12/17 10:30:14;;;;;;;48.45;26.50;;;;;;;7.48;100.00;104032.53;5040090;28;20047;-75
2021/12/17 10:32:43;;;;;;;53.47;27.15;;;;;;;7.49;100.00;104036.91;5042731;28;20058;-73
2021/12/17 10:35:12;;;;;;;49.05;26.55;;;;;;;7.48;100.00;104040.47;5044971;28;20136;-74
2021/12/17 10:37:41;;;;;;;49.20;26.58;;;;;;;7.50;100.00;104033.38;5039731;28;20487;-75
2021/12/17 10:40:36;;;;;;;52.22;26.60;;;;;;;7.56;100.00;104033.31;5038828;28;20037;-73
2021/12/17 10:43:17;;;;;;;46.17;24.67;;;;;;;7.55;100.00;104031.56;5036401;28;20108;-74
2021/12/17 10:45:57;;;;;;;49.80;25.35;;;;;;;7.56;100.00;104027.13;5035901;28;20396;-72
2021/12/17 10:51:16;;;;;;;48.15;25.98;;;;;;;7.59;100.00;104025.34;5034177;28;20068;-73
2021/12/17 10:53:53;;;;;;;46.55;26.17;;;;;;;7.62;100.00;104031.50;5036186;28;20028;-75
2021/12/17 10:56:36;;;;;;;49.13;25.55;;;;;;;7.62;100.00;104028.84;5039236;28;20040;-74
2021/12/17 10:59:14;;;;;;;46.92;23.42;;;;;;;7.66;100.00;104033.19;5026227;28;20030;-74
2021/12/17 11:01:43;;;;;;;48.53;22.70;;;;;;;7.66;100.00;104042.03;5039717;28;20048;-74
2021/12/17 11:04:14;;;;;;;46.25;22.65;;;;;;;7.63;100.00;104033.22;5054445;28;20021;-74
2021/12/17 11:06:54;;;;;;;44.90;22.02;;;;;;;7.67;100.00;104032.28;5046844;28;20064;-74
2021/12/17 11:09:53;;;;;;;42.53;20.05;;;;;;;7.70;100.00;104037.56;5054021;28;20029;-74
2021/12/17 11:12:53;;;;;;;41.83;19.30;;;;;;;7.72;100.00;104036.63;5040081;28;20022;-74
2021/12/17 11:15:30;;;;;;;37.78;18.52;;;;;;;7.70;100.00;104034.91;5010212;28;20065;-74
2021/12/17 11:18:02;;;;;;;34.95;16.95;;;;;;;7.71;100.00;104031.34;5036242;28;20399;-73
2021/12/17 11:20:33;;;;;;;37.60;17.00;;;;;;;7.72;100.00;104030.47;5051800;28;20068;-74
2021/12/17 11:23:06;;;;;;;38.65;17.95;;;;;;;7.74;100.00;104024.28;5041786;28;20035;-73
2021/12/17 11:25:33;;;;;;;36.80;16.27;;;;;;;7.75;100.00;104017.19;5051074;28;20032;-74
2021/12/17 11:27:58;;;;;;;38.00;17.02;;;;;;;7.76;100.00;104030.41;5051885;28;20033;-73
2021/12/17 11:30:26;;;;;;;37.03;16.98;;;;;;;7.77;100.00;104023.34;5053523;28;20037;-74
2021/12/17 11:32:53;;;;;;;37.15;17.10;;;;;;;7.76;100.00;104019.81;5047601;28;20128;-74
2021/12/17 11:35:21;;;;;;;32.65;14.82;;;;;;;7.78;100.00;104009.22;5052382;28;20037;-73
2021/12/17 11:37:49;;;;;;;35.13;16.40;;;;;;;7.81;100.00;104013.59;5050223;28;20025;-74
2021/12/17 11:40:23;;;;;;;37.85;16.63;;;;;;;7.83;100.00;104007.38;5037865;28;20170;-74
2021/12/17 11:43:09;;;;;;;34.25;15.80;;;;;;;7.86;100.00;104006.44;5036634;28;20251;-73
2021/12/17 11:45:35;;;;;;;35.50;15.27;;;;;;;7.84;100.00;104005.59;5034413;28;20165;-74
2021/12/17 11:48:31;;;;;;;32.83;15.85;;;;;;;7.89;100.00;103998.47;5046594;28;20029;-74
2021/12/17 11:51:09;;;;;;;35.50;16.27;;;;;;;7.83;100.00;103980.91;5034003;28;20556;-75
2021/12/17 11:53:42;;;;;;;36.70;15.82;;;;;;;7.91;100.00;103996.66;5032892;28;20038;-73
2021/12/17 11:56:07;;;;;;;34.20;15.90;;;;;;;7.92;100.00;103993.13;5035786;28;20037;-73
2021/12/17 11:58:53;;;;;;;33.70;15.70;;;;;;;7.93;100.00;103982.53;5027912;28;20018;-73
2021/12/17 12:01:51;;;;;;;34.08;16.35;;;;;;;7.97;100.00;103983.34;5033515;28;20037;-73
2021/12/17 12:04:34;;;;;;;33.58;15.75;;;;;;;7.99;99.92;103981.56;5037915;28;20057;-73
2021/12/17 12:07:02;;;;;;;29.67;15.40;;;;;;;7.96;99.66;103987.78;5033619;28;20477;-72
2021/12/17 12:09:56;;;;;;;28.85;14.70;;;;;;;7.96;99.46;103987.78;5033136;28;20172;-73
2021/12/17 12:12:24;;;;;;;34.63;16.42;;;;;;;7.91;99.30;103973.75;5041792;28;20596;-69
2021/12/17 12:14:50;;;;;;;31.88;16.23;;;;;;;7.94;99.31;103988.69;5037419;28;20400;-73
2021/12/17 12:17:53;;;;;;;33.53;15.98;;;;;;;7.99;99.57;103997.44;5041301;28;20045;-73
2021/12/17 12:20:47;;;;;;;29.92;15.52;;;;;;;8.00;99.22;103995.69;5049868;28;20104;-72
2021/12/17 12:23:23;;;;;;;29.70;15.18;;;;;;;7.99;99.09;104000.06;5047740;28;20108;-73
2021/12/17 12:26:01;;;;;;;28.02;15.40;;;;;;;7.98;99.39;103993.06;5050789;28;20104;-73
2021/12/17 12:28:46;;;;;;;30.85;16.65;;;;;;;7.99;99.44;104000.06;5061161;28;20026;-72
2021/12/17 12:31:12;;;;;;;31.98;16.17;;;;;;;7.99;98.99;104007.16;5048400;28;20033;-71
2021/12/17 12:34:13;;;;;;;31.35;15.85;;;;;;;8.01;98.91;103995.66;5050173;28;20147;-73
2021/12/17 12:37:08;;;;;;;25.73;15.32;;;;;;;8.00;98.85;103996.53;5038724;28;20112;-74
2021/12/17 12:40:06;;;;;;;27.40;15.48;;;;;;;8.01;99.01;103987.72;5050593;28;20506;-73
2021/12/17 12:42:35;;;;;;;27.95;16.35;;;;;;;7.96;98.81;103987.78;5050489;28;20032;-73
2021/12/17 12:45:03;;;;;;;35.03;17.73;;;;;;;8.00;98.95;103985.09;5046328;28;20499;-73
2021/12/17 12:47:31;;;;;;;27.20;15.57;;;;;;;7.99;98.49;103983.34;5049869;28;20033;-73
2021/12/17 12:50:04;;;;;;;28.15;15.35;;;;;;;7.97;98.58;103980.69;5045999;28;20368;-74
2021/12/17 12:52:45;;;;;;;24.48;13.85;;;;;;;7.99;98.59;103973.59;5043146;28;20375;-72
2021/12/17 12:55:26;;;;;;;23.30;14.32;;;;;;;7.98;98.43;103979.81;5052154;28;20556;-73
2021/12/17 12:58:14;;;;;;;20.40;12.80;;;;;;;8.01;98.44;103986.81;5040032;28;20037;-71
2021/12/17 13:00:44;;;;;;;20.45;11.25;;;;;;;7.97;98.11;103980.69;5039385;28;20033;-74
2021/12/17 13:03:15;;;;;;;17.77;11.05;;;;;;;7.95;98.22;103978.06;5066199;28;20024;-73
2021/12/17 13:05:43;;;;;;;18.05;10.30;;;;;;;7.93;97.96;103979.03;5032487;28;20030;-73
2021/12/17 13:08:12;;;;;;;17.67;10.88;;;;;;;7.93;97.81;103979.03;5045266;28;20590;-75
2021/12/17 13:10:50;;;;;;;16.37;10.70;;;;;;;7.94;97.61;103978.09;5045817;28;20418;-73
2021/12/17 13:21:31;;;;;;;16.77;10.43;;;;;;;7.85;96.73;103978.25;5045826;28;20144;-73
2021/12/17 13:24:11;;;;;;;;;;;;;;;7.93;97.18;103979.88;5048043;28;20041;-72
2021/12/17 13:26:39;;;;;;;21.27;11.95;;;;;;;7.81;96.51;103982.72;5045543;28;20438;-71
2021/12/17 13:29:24;;;;;;;19.30;11.95;;;;;;;7.81;96.64;103984.47;5048260;28;20033;-72
2021/12/17 13:31:57;;;;;;;20.67;12.63;;;;;;;7.75;96.10;103986.31;5046180;28;20031;-72
2021/12/17 13:34:58;;;;;;;24.15;12.73;;;;;;;7.77;96.09;103981.00;5033914;28;20049;-72
2021/12/17 13:37:27;;;;;;;18.75;12.57;;;;;;;7.71;95.62;103976.69;5044383;28;20028;-73
2021/12/17 13:39:53;;;;;;;21.27;13.20;;;;;;;7.72;95.48;103980.19;5047667;28;20048;-72
2021/12/17 13:42:22;;;;;;;20.15;12.48;;;;;;;7.69;95.42;103983.75;5047125;28;20033;-73
2021/12/17 13:44:51;;;;;;;21.10;13.20;;;;;;;7.71;95.62;103983.72;5045804;28;20380;-72
2021/12/17 13:47:24;;;;;;;18.27;12.15;;;;;;;7.68;95.29;103981.16;5037103;28;20028;-73
2021/12/17 13:50:08;;;;;;;17.70;11.65;;;;;;;7.70;95.80;103979.34;5046611;28;20063;-72
2021/12/17 13:52:36;;;;;;;18.25;11.52;;;;;;;7.64;95.81;103969.72;5048295;28;20179;-72
2021/12/17 13:55:06;;;;;;;15.57;9.98;;;;;;;7.65;96.06;103978.53;5046579;28;20387;-72
2021/12/17 13:57:32;;;;;;;12.35;8.30;;;;;;;7.64;95.61;103985.59;5046654;28;20021;-73
2021/12/17 14:00:20;;;;;;;9.30;6.90;;;;;;;7.64;95.19;103982.94;5044680;28;20055;-72
2021/12/17 14:02:47;;;;;;;10.00;6.97;;;;;;;7.60;95.24;103987.41;5048102;28;20017;-72
2021/12/17 14:05:27;;;;;;;8.48;6.93;;;;;;;7.59;95.66;103980.38;5047951;28;20033;-73
2021/12/17 14:07:55;;;;;;;8.43;6.72;;;;;;;7.58;95.46;103986.56;5037688;28;20041;-72
2021/12/17 14:10:24;;;;;;;8.68;6.88;;;;;;;7.56;95.57;103979.53;5048058;28;20025;-73